Terminal Aerodrome Forecast
Issued by NWS Sterling, VA

Current Version | Previous Version | Graphics & Text | Print | Product List | Glossary On
Versions: 1 2 3 4 5 6 7 8 9 10 11 12 13 14 15 16 17 18 19 20 21 22 23
544
FTUS41 KLWX 250912 AAA
TAFIAD
TAF AMD
KIAD 250912Z 2509/2612 03009KT 6SM -DZ BR VCSH BKN005 OVC012
     FM251200 03010G18KT 5SM -RADZ BKN008 OVC015
     FM252100 02008KT 5SM -RA BKN008 OVC015
     FM260300 34006KT 5SM BR BKN008 OVC015=

USA.gov is the U.S. government's official web portal to all federal, state and local government web resources and services.